Flight Track Log - Related Links

Times and Time Zones

All times are in EDT time to prevent confusion due to time zone crossing. See the FDX1908 flight status page for this flight to view local times or setup timezone preferences in your user account.

Time Position Orientation Groundspeed Altitude Reporting Facility
EDT Latitude Longitude Course Direction KTS MPH feet Rate Location/Type
10:20PM 43.1100 -76.0890 86° East 172 198 1,400  Level FlightAware
10:21PM 43.1110 -76.0610 87° East 204 235 2,300 2,222 Climbing FlightAware
10:21PM 43.1010 -76.0220 109° East 247 284 3,400 2,375 Climbing FlightAware
10:21PM 43.0820 -76.0060 148° Southeast 271 312 4,200 3,261 Climbing FlightAware
10:22PM 43.0470 -75.9970 169° South 274 315 5,900 3,714 Climbing FlightAware
10:22PM 43.0290 -75.9940 173° South 275 316 6,800 3,682 Climbing FlightAware
10:23PM 42.9910 -75.9860 171° South 284 327 8,600 3,053 Climbing FlightAware
10:23PM 42.9560 -75.9770 169° South 301 346 9,700 2,328 Climbing FlightAware
10:24PM 42.9040 -75.9450 156° South 324 373 11,200 1,875 Climbing FlightAware
10:24PM 42.8520 -75.8900 142° Southeast 373 429 12,200 1,891 Climbing FlightAware
10:25PM 42.7730 -75.8160 145° Southeast 417 480 14,100 2,483 Climbing FlightAware
10:26PM 42.6610 -75.7360 152° Southeast 436 502 17,000 1,731 Climbing FlightAware
10:27PM 42.5870 -75.6840 153° Southeast 440 506 17,100 71 Climbing FlightAware
10:28PM 42.5090 -75.6280 152° Southeast 432 497 17,100  Level FlightAware
10:28PM 42.4380 -75.5790 153° Southeast 432 497 17,100  Level FlightAware
10:29PM 42.3760 -75.5360 153° Southeast 430 495 17,100  Level FlightAware
10:31PM 42.2050 -75.4150 152° Southeast 436 502 17,100  Level FlightAware
10:32PM 42.1350 -75.3650 152° Southeast 436 502 17,100  Level FlightAware
10:32PM 42.0760 -75.3230 152° Southeast 436 502 17,100  Level FlightAware
10:33PM 42.0300 -75.2310 124° Southeast 434 499 17,100  Level FlightAware
10:34PM 41.9760 -75.0860 117° Southeast 433 498 17,100  Level FlightAware
10:34PM 41.9340 -74.9720 116° Southeast 432 497 17,100  Level FlightAware
10:35PM 41.8980 -74.8730 116° Southeast 432 497 17,100  Level FlightAware
10:36PM 41.8520 -74.7480 116° Southeast 432 497 17,100  Level FlightAware
10:38PM 41.7890 -74.5740 116° Southeast 432 497 17,100 -2,713 Level FlightAware
10:39PM 41.6525 -74.4794 116° Southeast 340 391 10,000 -4,000 Descending Boston Center
10:40PM 41.5917 -74.3942 134° Southeast 292 336 8,300 -553 Descending Boston Center
10:45PM 41.2080 -74.4500 134° Southeast 267 307 6,500 -414 Descending FlightAware
10:46PM 41.1820 -74.4220 141° Southeast 262 302 5,900 -889 Descending FlightAware
10:46PM 41.1580 -74.3960 141° Southeast 236 272 5,700 -724 Descending FlightAware
10:47PM 41.1320 -74.3680 141° Southeast 231 266 5,200 -878 Descending FlightAware
10:47PM 41.1217 -74.3560 139° Southeast 231 266 5,100 -240 Descending FlightAware ADS-B
10:47PM 41.1082 -74.3416 141° Southeast 233 268 5,100  Level FlightAware ADS-B
10:47PM 41.0931 -74.3251 141° Southeast 234 269 5,100  Level FlightAware ADS-B
10:48PM 41.0780 -74.3087 141° Southeast 235 270 5,100  Level FlightAware ADS-B
10:48PM 41.0646 -74.2941 141° Southeast 234 269 5,100  Level FlightAware ADS-B
10:48PM 41.0476 -74.2758 141° Southeast 236 272 5,100  Level FlightAware ADS-B
10:48PM 41.0336 -74.2612 142° Southeast 235 270 5,100  Level FlightAware ADS-B
10:49PM 41.0202 -74.2468 141° Southeast 235 270 5,100  Level FlightAware ADS-B
10:49PM 41.0067 -74.2322 141° Southeast 235 270 5,100 -188 Level FlightAware ADS-B
10:49PM 40.9943 -74.2188 141° Southeast 226 260 5,000 -545 Descending FlightAware ADS-B
10:50PM 40.9807 -74.2042 141° Southeast 218 251 4,800 -750 Descending FlightAware ADS-B
10:50PM 40.9686 -74.1909 140° Southeast 213 245 4,600 -774 Descending FlightAware ADS-B
10:50PM 40.9567 -74.1780 141° Southeast 208 239 4,400 -774 Descending FlightAware ADS-B
10:50PM 40.9454 -74.1661 141° Southeast 204 235 4,200 -529 Descending FlightAware ADS-B
10:51PM 40.9320 -74.1514 140° Southeast 198 228 4,100 -514 Descending FlightAware ADS-B
10:51PM 40.9206 -74.1393 141° Southeast 198 228 3,900 -750 Descending FlightAware ADS-B
10:51PM 40.9088 -74.1268 141° Southeast 203 234 3,700 -774 Descending FlightAware ADS-B
10:51PM 40.8978 -74.1150 141° Southeast 205 236 3,500 -774 Descending FlightAware ADS-B
10:52PM 40.8858 -74.1023 141° Southeast 203 234 3,300 -750 Descending FlightAware ADS-B
10:52PM 40.8743 -74.0897 140° Southeast 203 234 3,100 -353 Descending FlightAware ADS-B
10:52PM 40.8619 -74.0767 142° Southeast 198 228 3,100  Level FlightAware ADS-B
10:52PM 40.8581 -74.0733 146° Southeast 197 227 3,100  Level FlightAware ADS-B
10:52PM 40.8549 -74.0711 153° Southeast 196 226 3,100  Level FlightAware ADS-B
10:52PM 40.8522 -74.0699 161° South 195 224 3,100  Level FlightAware ADS-B
10:53PM 40.8494 -74.0688 163° South 193 222 3,100  Level FlightAware ADS-B
10:53PM 40.8467 -74.0686 177° South 192 221 3,100  Level FlightAware ADS-B
10:53PM 40.8436 -74.0689 184° South 190 219 3,100  Level FlightAware ADS-B
10:53PM 40.8393 -74.0710 200° South 187 215 3,100 -667 Level FlightAware ADS-B
10:53PM 40.8290 -74.0770 204° Southwest 191 220 2,900 -900 Descending FlightAware ADS-B
10:53PM 40.8229 -74.0806 204° Southwest 189 217 2,800 -923 Descending FlightAware ADS-B
10:53PM 40.8184 -74.0836 207° Southwest 187 215 2,700 -1,059 Descending FlightAware ADS-B
10:54PM 40.7970 -74.0982 207° Southwest 185 213 2,200 -977 Descending FlightAware ADS-B
10:54PM 40.7851 -74.1057 206° Southwest 185 213 2,000 -800 Descending FlightAware ADS-B
10:54PM 40.7737 -74.1130 206° Southwest 184 212 1,800 -938 Descending FlightAware ADS-B
10:54PM 40.7612 -74.1208 205° Southwest 181 208 1,500 -938 Descending FlightAware ADS-B
10:55PM 40.7503 -74.1280 207° Southwest 164 189 1,300 -800 Descending FlightAware ADS-B
10:55PM 40.7405 -74.1342 206° Southwest 149 171 1,100 -909 Descending FlightAware ADS-B
10:55PM 40.7304 -74.1407 206° Southwest 129 148 800 -375 Descending FlightAware ADS-B
10:56PM 40.7170 -74.1490 205° Southwest 127 146 800 -566 Level FlightAware
10:56PM 40.7030 -74.1580 206° Southwest 127 146 300 -1,105 Descending FlightAware ADS-B
10:56PM 40.6954 -74.1628 206° Southwest 119 137 100 -800 Descending FlightAware ADS-B

Login

Don't have an account? Register now (free) for customized features, flight alerts, and more!